Time;durP1;ratioP1;P1;durP2;ratioP2;P2;SDS_P1;SDS_P2;PMS_P1;PMS_P2;Temp;Humidity;BMP_temperature;BMP_pressure;BME280_temperature;BME280_humidity;BME280_pressure;Samples;Min_cycle;Max_cycle;Signal;HPM_P1;HPM_P2
2021/10/27 00:02:14;;;;;;;11.10;5.22;;;12.80;88.00;;;;;;5057025;28;20669;-48
2021/10/27 00:04:39;;;;;;;10.57;5.53;;;12.80;87.80;;;;;;5057324;28;20021;-48
2021/10/27 00:07:05;;;;;;;7.97;5.45;;;12.80;87.80;;;;;;5074681;28;20131;-48
2021/10/27 00:09:31;;;;;;;14.85;7.20;;;12.80;88.00;;;;;;5074914;28;20100;-49
2021/10/27 00:11:56;;;;;;;10.25;5.70;;;12.80;88.10;;;;;;5074892;28;20021;-47
2021/10/27 00:14:22;;;;;;;11.77;7.28;;;12.80;88.00;;;;;;5074992;28;20021;-49
2021/10/27 00:16:48;;;;;;;16.30;7.95;;;12.80;88.50;;;;;;5074952;28;20373;-46
2021/10/27 00:19:14;;;;;;;9.57;6.38;;;12.80;88.20;;;;;;5074684;28;20032;-48
2021/10/27 00:21:40;;;;;;;14.23;7.00;;;12.80;88.40;;;;;;5075269;28;20103;-49
2021/10/27 00:24:05;;;;;;;10.43;7.35;;;12.80;88.30;;;;;;5074450;28;20063;-47
2021/10/27 00:26:31;;;;;;;9.70;7.35;;;12.90;88.40;;;;;;5074753;28;20021;-47
2021/10/27 00:28:56;;;;;;;11.90;6.75;;;12.80;88.50;;;;;;5074543;28;20025;-46
2021/10/27 00:31:23;;;;;;;12.43;6.95;;;12.80;88.60;;;;;;5074429;28;20381;-50
2021/10/27 00:33:49;;;;;;;11.90;6.05;;;12.90;88.70;;;;;;5074656;28;20464;-46
2021/10/27 00:36:15;;;;;;;13.75;7.57;;;12.90;88.60;;;;;;5074251;28;20055;-46
2021/10/27 00:38:41;;;;;;;7.47;6.03;;;12.80;88.80;;;;;;5073582;28;20028;-47
2021/10/27 00:41:08;;;;;;;10.32;5.90;;;13.00;88.50;;;;;;5074434;28;20036;-47
2021/10/27 00:43:35;;;;;;;16.33;8.15;;;12.80;88.70;;;;;;5074499;28;20028;-48
2021/10/27 00:46:01;;;;;;;7.80;5.05;;;12.90;88.50;;;;;;5074107;28;20021;-48
2021/10/27 00:48:27;;;;;;;10.43;6.13;;;12.90;88.50;;;;;;5074082;28;20026;-50
2021/10/27 00:50:53;;;;;;;9.48;6.07;;;12.90;88.70;;;;;;5074077;28;20439;-48
2021/10/27 00:53:18;;;;;;;10.48;6.00;;;12.80;88.90;;;;;;5074048;28;20302;-46
2021/10/27 00:55:45;;;;;;;13.60;6.13;;;12.90;88.90;;;;;;5055972;28;20361;-47
2021/10/27 00:58:11;;;;;;;11.35;6.20;;;13.00;88.50;;;;;;5074002;28;20376;-47
2021/10/27 01:00:36;;;;;;;9.55;5.50;;;13.00;88.80;;;;;;5073713;28;20105;-47
2021/10/27 01:03:02;;;;;;;12.57;5.20;;;13.10;88.50;;;;;;5073667;28;20047;-46
2021/10/27 01:05:29;;;;;;;12.80;6.32;;;13.10;88.60;;;;;;5073732;28;20488;-47
2021/10/27 01:07:55;;;;;;;16.00;6.30;;;13.00;88.70;;;;;;5073992;28;20021;-48
2021/10/27 01:10:21;;;;;;;12.23;5.80;;;13.00;88.70;;;;;;5073425;28;20040;-48
2021/10/27 01:12:47;;;;;;;10.60;6.15;;;13.00;88.80;;;;;;5073380;28;20028;-47
2021/10/27 01:15:13;;;;;;;6.90;5.20;;;13.00;88.80;;;;;;5073330;28;20021;-47
2021/10/27 01:17:40;;;;;;;8.07;6.07;;;13.00;89.40;;;;;;5073608;28;20037;-45
2021/10/27 01:20:06;;;;;;;13.90;6.35;;;13.00;89.70;;;;;;5073484;28;20058;-45
2021/10/27 01:22:38;;;;;;;8.10;6.53;;;13.00;89.40;;;;;;5073469;28;20036;-48
2021/10/27 01:25:08;;;;;;;16.77;5.97;;;12.90;89.50;;;;;;5073507;28;20104;-47
2021/10/27 01:27:42;;;;;;;12.27;6.03;;;12.90;89.60;;;;;;5073021;28;20499;-47
2021/10/27 01:30:17;;;;;;;12.88;7.03;;;12.90;89.70;;;;;;5073365;28;20439;-47
2021/10/27 01:32:43;;;;;;;11.73;6.00;;;12.90;89.70;;;;;;5073198;28;20017;-48
2021/10/27 01:35:10;;;;;;;7.97;4.75;;;12.90;89.70;;;;;;5073255;28;20028;-50
2021/10/27 01:37:37;;;;;;;12.48;6.68;;;13.00;89.40;;;;;;5073183;28;20090;-48
2021/10/27 01:40:04;;;;;;;7.53;6.30;;;13.00;89.30;;;;;;5073115;28;20082;-49
2021/10/27 01:42:30;;;;;;;17.60;7.32;;;13.00;89.50;;;;;;5073067;28;20051;-46
2021/10/27 01:44:56;;;;;;;14.15;7.95;;;13.00;89.50;;;;;;5073037;28;20033;-47
2021/10/27 01:47:21;;;;;;;17.35;7.03;;;13.10;89.30;;;;;;5073222;28;20025;-46
2021/10/27 01:49:48;;;;;;;12.13;6.88;;;13.10;89.20;;;;;;5072252;28;20059;-51
2021/10/27 01:52:14;;;;;;;16.00;8.65;;;13.10;89.20;;;;;;5073150;28;20494;-46
2021/10/27 01:54:40;;;;;;;10.82;7.15;;;13.10;89.10;;;;;;5055539;28;20056;-49
2021/10/27 01:57:07;;;;;;;11.95;8.43;;;13.00;89.10;;;;;;5073414;28;20472;-47
2021/10/27 01:59:33;;;;;;;12.18;6.90;;;13.10;89.10;;;;;;5073295;28;20388;-48
2021/10/27 02:01:59;;;;;;;10.52;7.22;;;13.10;89.20;;;;;;5073043;28;20032;-46
2021/10/27 02:04:25;;;;;;;9.55;5.80;;;13.10;89.00;;;;;;5073112;28;20040;-49
2021/10/27 02:06:51;;;;;;;6.75;5.15;;;13.00;89.30;;;;;;5072849;28;20044;-47
2021/10/27 02:09:16;;;;;;;8.52;5.57;;;12.90;89.70;;;;;;5054838;28;20112;-46
2021/10/27 02:11:42;;;;;;;9.15;6.93;;;13.00;89.50;;;;;;5072770;28;20048;-47
2021/10/27 02:14:08;;;;;;;13.23;7.85;;;13.10;89.50;;;;;;5054634;28;20028;-46
2021/10/27 02:16:34;;;;;;;14.25;7.07;;;13.10;89.20;;;;;;5072937;28;20040;-48
2021/10/27 02:18:59;;;;;;;12.27;6.38;;;13.10;89.30;;;;;;5072643;28;20329;-49
2021/10/27 02:21:25;;;;;;;13.07;6.10;;;13.20;89.00;;;;;;5073002;28;20039;-48
2021/10/27 02:23:51;;;;;;;17.27;7.07;;;13.20;89.00;;;;;;5072594;28;20030;-47
2021/10/27 02:26:18;;;;;;;10.88;6.80;;;13.20;89.20;;;;;;5072524;28;20017;-46
2021/10/27 02:28:44;;;;;;;12.73;7.00;;;13.20;89.50;;;;;;5072458;28;20032;-46
2021/10/27 02:31:10;;;;;;;10.68;5.78;;;13.20;89.70;;;;;;5072431;28;20469;-46
2021/10/27 02:33:35;;;;;;;9.70;6.32;;;13.10;90.00;;;;;;5072653;28;20044;-47
2021/10/27 02:36:01;;;;;;;10.75;6.00;;;13.00;90.50;;;;;;5072462;28;20025;-46
2021/10/27 02:38:27;;;;;;;10.13;5.80;;;12.90;90.60;;;;;;5072369;28;20361;-48
2021/10/27 02:40:52;;;;;;;11.20;5.88;;;12.80;91.00;;;;;;5072728;28;20032;-46
2021/10/27 02:43:18;;;;;;;11.10;6.45;;;12.80;90.90;;;;;;5072347;28;20020;-47
2021/10/27 02:45:46;;;;;;;8.38;5.65;;;13.00;90.70;;;;;;5072546;28;20024;-46
2021/10/27 02:48:12;;;;;;;11.13;6.72;;;13.00;90.60;;;;;;5072160;28;20127;-46
2021/10/27 02:50:38;;;;;;;15.52;5.95;;;13.10;90.20;;;;;;5072250;28;20052;-46
2021/10/27 02:53:05;;;;;;;14.77;6.80;;;13.10;90.30;;;;;;5072277;28;20024;-47
2021/10/27 02:55:30;;;;;;;12.07;6.13;;;13.00;90.40;;;;;;5072105;28;20040;-48
2021/10/27 02:57:57;;;;;;;8.75;6.05;;;13.10;90.10;;;;;;5072469;28;20033;-47
2021/10/27 03:00:24;;;;;;;19.48;6.70;;;13.10;90.30;;;;;;5072858;28;20021;-49
2021/10/27 03:02:50;;;;;;;7.20;6.28;;;13.10;90.10;;;;;;5058270;28;20107;-48
2021/10/27 03:05:16;;;;;;;8.85;6.63;;;13.10;90.00;;;;;;5075828;28;20120;-48
2021/10/27 03:07:42;;;;;;;15.25;5.78;;;13.20;89.90;;;;;;5076287;28;20472;-47
2021/10/27 03:10:08;;;;;;;8.77;5.35;;;13.10;89.90;;;;;;5076036;28;20059;-46
2021/10/27 03:12:34;;;;;;;10.60;5.43;;;13.00;90.20;;;;;;5058034;28;20035;-46
2021/10/27 03:14:59;;;;;;;8.60;5.10;;;13.10;90.20;;;;;;5076104;28;20029;-48
2021/10/27 03:17:25;;;;;;;11.80;6.55;;;13.00;90.00;;;;;;5076046;28;20025;-46
2021/10/27 03:19:51;;;;;;;16.08;6.50;;;13.10;89.90;;;;;;5075725;28;20115;-46
2021/10/27 03:22:17;;;;;;;16.00;6.70;;;13.20;89.70;;;;;;5058242;28;20028;-46
2021/10/27 03:24:42;;;;;;;15.32;6.05;;;13.20;89.70;;;;;;5075925;28;20503;-47
2021/10/27 03:27:08;;;;;;;10.25;6.10;;;13.20;89.40;;;;;;5075825;28;20052;-46
2021/10/27 03:29:34;;;;;;;12.02;6.47;;;13.20;89.50;;;;;;5075851;28;20069;-47
2021/10/27 03:32:00;;;;;;;12.88;6.28;;;13.10;89.60;;;;;;5040972;28;20028;-47
2021/10/27 03:34:26;;;;;;;11.00;6.00;;;13.30;89.30;;;;;;5075774;28;20027;-47
2021/10/27 03:36:53;;;;;;;9.63;5.20;;;13.30;89.10;;;;;;5075732;28;20025;-47
2021/10/27 03:39:19;;;;;;;13.77;5.35;;;13.10;89.20;;;;;;5075759;28;20016;-46
2021/10/27 03:41:46;;;;;;;13.32;5.88;;;13.20;89.20;;;;;;5075553;28;20017;-47
2021/10/27 03:44:12;;;;;;;16.20;5.97;;;13.20;88.90;;;;;;5075652;28;20185;-47
2021/10/27 03:46:38;;;;;;;17.15;5.18;;;13.10;89.20;;;;;;5075512;28;20044;-50
2021/10/27 03:49:04;;;;;;;13.55;5.47;;;13.00;89.50;;;;;;5057384;28;20197;-47
2021/10/27 03:51:30;;;;;;;17.45;6.03;;;13.00;89.40;;;;;;5075572;28;20024;-48
2021/10/27 03:53:55;;;;;;;9.80;5.00;;;13.00;89.70;;;;;;5075213;28;20107;-48
2021/10/27 03:56:21;;;;;;;12.38;5.53;;;13.00;89.40;;;;;;5075172;28;20028;-49
2021/10/27 03:58:46;;;;;;;10.55;5.53;;;13.00;89.30;;;;;;5075302;28;20029;-48
2021/10/27 04:01:12;;;;;;;11.52;5.15;;;13.00;89.10;;;;;;5075068;28;20017;-48
2021/10/27 04:03:38;;;;;;;9.48;5.72;;;13.00;89.20;;;;;;5056935;28;20025;-45
2021/10/27 04:06:04;;;;;;;11.77;6.03;;;13.10;89.00;;;;;;5074772;28;20042;-46
2021/10/27 04:08:30;;;;;;;13.82;6.07;;;13.10;88.90;;;;;;5075112;28;20108;-46
2021/10/27 04:10:55;;;;;;;11.10;4.85;;;13.10;88.90;;;;;;5056695;28;20438;-47
2021/10/27 04:13:21;;;;;;;9.20;5.47;;;13.00;89.20;;;;;;5073788;28;20021;-48
2021/10/27 04:15:47;;;;;;;11.80;4.95;;;13.10;89.00;;;;;;5074814;28;20028;-46
2021/10/27 04:18:12;;;;;;;9.82;5.10;;;13.00;88.90;;;;;;5074651;28;20024;-47
2021/10/27 04:20:38;;;;;;;7.90;4.82;;;13.00;88.90;;;;;;5074756;28;20021;-48
2021/10/27 04:23:06;;;;;;;14.25;5.35;;;13.00;89.10;;;;;;5074667;28;20036;-50
2021/10/27 04:25:31;;;;;;;16.38;4.60;;;13.00;89.10;;;;;;5074312;28;20025;-48
2021/10/27 04:27:58;;;;;;;10.50;5.55;;;13.00;89.20;;;;;;5074804;28;20035;-47
2021/10/27 04:30:24;;;;;;;12.82;4.70;;;12.90;89.20;;;;;;5074560;28;20020;-48
2021/10/27 04:32:50;;;;;;;15.93;5.82;;;13.00;89.10;;;;;;5074547;28;20465;-49
2021/10/27 04:35:16;;;;;;;12.15;5.10;;;13.10;88.90;;;;;;5074539;28;20059;-47
2021/10/27 04:37:44;;;;;;;14.90;6.18;;;13.00;88.70;;;;;;5074376;28;20043;-51
2021/10/27 04:40:15;;;;;;;8.68;4.63;;;13.00;88.90;;;;;;5074838;28;20029;-51
2021/10/27 04:42:41;;;;;;;11.73;4.60;;;13.20;88.30;;;;;;5075117;28;20380;-47
2021/10/27 04:45:08;;;;;;;9.60;5.32;;;13.10;88.50;;;;;;5074365;28;20107;-48
2021/10/27 04:47:34;;;;;;;9.52;4.93;;;13.00;88.80;;;;;;5074589;28;20078;-48
2021/10/27 04:50:00;;;;;;;11.25;5.75;;;13.00;88.90;;;;;;5074150;28;20025;-48
2021/10/27 04:52:26;;;;;;;12.13;4.85;;;13.10;88.60;;;;;;5074056;28;20346;-47
2021/10/27 04:54:52;;;;;;;8.90;4.57;;;13.00;88.50;;;;;;5083468;28;20016;-37
2021/10/27 04:57:19;;;;;;;19.95;5.05;;;13.10;88.40;;;;;;5059352;28;20135;-38
2021/10/27 04:59:44;;;;;;;10.13;4.57;;;13.10;88.30;;;;;;5056088;28;20515;-36
2021/10/27 05:02:15;;;;;;;8.95;4.70;;;13.10;88.30;;;;;;5074124;28;20020;-38
2021/10/27 05:04:42;;;;;;;11.98;4.63;;;13.10;88.10;;;;;;5074303;28;20029;-37
2021/10/27 05:07:10;;;;;;;13.30;4.97;;;13.10;88.00;;;;;;5073614;28;20044;-37
2021/10/27 05:09:35;;;;;;;8.02;5.07;;;13.10;87.90;;;;;;5055802;28;20396;-37
2021/10/27 05:12:04;;;;;;;12.20;4.78;;;13.00;88.30;;;;;;5073913;28;20027;-37
2021/10/27 05:14:30;;;;;;;11.68;5.55;;;13.10;87.80;;;;;;5073494;28;20096;-37
2021/10/27 05:16:56;;;;;;;12.07;5.13;;;13.20;87.80;;;;;;5073676;28;20476;-38
2021/10/27 05:19:21;;;;;;;10.77;5.18;;;13.10;87.90;;;;;;5073886;28;20021;-38
2021/10/27 05:21:47;;;;;;;16.55;4.72;;;13.00;88.10;;;;;;5073793;28;20445;-37
2021/10/27 05:24:13;;;;;;;9.55;4.38;;;13.00;88.10;;;;;;5073266;28;20059;-37
2021/10/27 05:26:39;;;;;;;10.70;5.25;;;13.00;88.30;;;;;;5055045;28;20111;-37
2021/10/27 05:29:04;;;;;;;10.20;4.63;;;13.00;88.00;;;;;;5074041;28;20044;-37
2021/10/27 05:31:30;;;;;;;9.30;4.38;;;13.00;88.00;;;;;;5073561;28;20029;-37
2021/10/27 05:33:56;;;;;;;12.05;5.82;;;13.10;87.60;;;;;;5073285;28;20100;-37
2021/10/27 05:36:21;;;;;;;14.55;5.13;;;13.00;87.90;;;;;;5073612;28;20021;-37
2021/10/27 05:38:47;;;;;;;8.80;4.63;;;13.10;87.80;;;;;;5073113;28;20035;-37
2021/10/27 05:41:12;;;;;;;9.48;4.85;;;13.10;87.70;;;;;;5073156;28;20021;-37
2021/10/27 05:43:38;;;;;;;10.13;5.40;;;13.10;87.50;;;;;;5055006;28;20029;-37
2021/10/27 05:46:04;;;;;;;12.13;5.07;;;13.20;87.30;;;;;;5073100;28;20024;-37
2021/10/27 05:48:41;;;;;;;12.00;5.68;;;13.20;87.30;;;;;;5072694;28;20023;-37
2021/10/27 05:56:19;;;;;;;12.68;4.68;;;13.20;87.40;;;;;;5072747;28;20026;-37
2021/10/27 05:58:50;;;;;;;12.07;4.80;;;13.10;87.50;;;;;;5072594;28;20024;-37
2021/10/27 06:01:15;;;;;;;15.25;5.10;;;13.10;87.30;;;;;;5073126;28;20043;-37
2021/10/27 06:03:42;;;;;;;8.70;4.10;;;13.10;87.40;;;;;;5073182;28;20111;-37
2021/10/27 06:06:07;;;;;;;10.55;4.78;;;13.10;87.30;;;;;;5072630;28;20048;-38
2021/10/27 06:08:34;;;;;;;11.77;4.85;;;13.10;87.30;;;;;;5072647;28;20116;-37
2021/10/27 06:11:08;;;;;;;13.05;5.65;;;13.10;87.20;;;;;;5072549;28;20024;-37
2021/10/27 06:13:35;;;;;;;9.23;4.07;;;13.20;87.10;;;;;;5072485;28;20046;-38
2021/10/27 06:16:02;;;;;;;13.50;4.47;;;13.10;87.20;;;;;;5072549;28;20408;-37
2021/10/27 06:18:28;;;;;;;12.63;4.47;;;13.10;87.30;;;;;;5054242;28;20086;-37
2021/10/27 06:20:54;;;;;;;12.38;6.63;;;13.10;87.50;;;;;;5072139;28;20380;-37
2021/10/27 06:23:20;;;;;;;10.93;5.78;;;13.10;87.30;;;;;;5072020;28;20032;-37
2021/10/27 06:25:48;;;;;;;14.57;6.47;;;13.20;86.80;;;;;;5072063;28;20035;-37
2021/10/27 06:28:18;;;;;;;13.57;5.07;;;13.20;86.80;;;;;;5074390;28;20070;-37
2021/10/27 06:30:52;;;;;;;16.77;6.07;;;13.20;86.80;;;;;;5073488;28;20025;-37
2021/10/27 06:35:53;;;;;;;8.05;4.95;;;13.20;86.40;;;;;;5075731;28;20024;-37
2021/10/27 06:48:54;;;;;;;12.45;4.32;;;13.30;86.30;;;;;;5079244;28;20029;-37
2021/10/27 06:51:20;;;;;;;8.90;3.75;;;13.30;86.20;;;;;;5079121;28;20154;-37
2021/10/27 06:53:46;;;;;;;11.23;4.18;;;13.20;86.20;;;;;;5079494;28;20166;-37
2021/10/27 06:56:12;;;;;;;14.52;6.78;;;13.30;86.20;;;;;;5078976;28;20025;-37
2021/10/27 06:58:51;;;;;;;8.82;5.18;;;13.30;86.20;;;;;;5079215;28;20441;-38
2021/10/27 07:01:21;;;;;;;10.95;4.60;;;13.30;86.20;;;;;;5079026;28;20036;-37
2021/10/27 07:17:14;;;;;;;6.45;3.08;;;13.50;84.70;;;;;;5078735;28;20515;-38
2021/10/27 07:19:40;;;;;;;5.57;4.05;;;13.40;84.80;;;;;;5078930;28;20115;-38
2021/10/27 07:22:06;;;;;;;7.43;3.35;;;13.40;84.90;;;;;;5078824;28;20069;-38
2021/10/27 07:24:31;;;;;;;8.32;3.92;;;13.50;84.60;;;;;;5060413;28;20119;-38
2021/10/27 07:27:02;;;;;;;6.05;3.78;;;13.50;84.30;;;;;;5079092;28;20028;-38
2021/10/27 07:29:27;;;;;;;6.68;3.15;;;13.60;84.10;;;;;;5078600;28;20024;-37
2021/10/27 07:31:53;;;;;;;6.25;3.28;;;13.60;84.30;;;;;;5078628;28;20029;-38
2021/10/27 07:34:20;;;;;;;5.30;3.28;;;13.60;83.80;;;;;;5060454;28;20039;-41
2021/10/27 07:42:24;;;;;;;4.93;2.60;;;13.70;83.70;;;;;;5078555;28;20058;-38
2021/10/27 07:44:50;;;;;;;7.25;3.30;;;13.80;83.10;;;;;;5078556;28;20021;-37
2021/10/27 07:47:17;;;;;;;8.27;3.33;;;13.80;83.10;;;;;;5059492;28;20495;-37
2021/10/27 07:49:43;;;;;;;8.32;3.20;;;13.80;82.90;;;;;;5075282;28;20104;-38
2021/10/27 07:52:08;;;;;;;2.35;2.08;;;13.80;82.90;;;;;;5057110;28;20043;-37
2021/10/27 07:54:35;;;;;;;7.80;4.07;;;13.80;82.80;;;;;;5074792;28;20111;-38
2021/10/27 07:57:01;;;;;;;13.73;5.40;;;13.80;82.50;;;;;;5056890;28;20086;-37
2021/10/27 07:59:29;;;;;;;14.23;3.97;;;13.90;82.40;;;;;;5075069;28;20111;-37
2021/10/27 08:01:55;;;;;;;6.60;2.70;;;13.90;82.30;;;;;;5040224;28;20096;-37
2021/10/27 08:04:22;;;;;;;7.93;3.55;;;13.90;82.20;;;;;;5075371;28;20044;-38
2021/10/27 08:06:47;;;;;;;4.72;3.28;;;13.80;82.50;;;;;;5075204;28;20045;-37
2021/10/27 08:09:14;;;;;;;6.82;2.97;;;13.90;82.40;;;;;;5075674;28;20487;-36
2021/10/27 08:11:40;;;;;;;7.65;2.95;;;14.00;82.10;;;;;;5075783;28;20024;-36
2021/10/27 08:14:06;;;;;;;6.68;2.72;;;14.00;82.30;;;;;;5075339;28;20370;-37
2021/10/27 08:16:33;;;;;;;9.18;3.22;;;14.10;81.70;;;;;;5074661;28;20025;-37
2021/10/27 08:18:59;;;;;;;6.35;3.45;;;14.00;82.10;;;;;;5074491;28;20031;-38
2021/10/27 08:21:25;;;;;;;12.20;4.13;;;14.10;81.90;;;;;;5074400;28;20096;-36
2021/10/27 08:23:52;;;;;;;4.93;3.22;;;14.00;81.90;;;;;;5074392;28;20029;-36
2021/10/27 08:26:21;;;;;;;11.40;4.15;;;14.10;81.90;;;;;;5074273;28;20048;-36
2021/10/27 08:29:13;;;;;;;5.25;3.05;;;14.10;81.90;;;;;;5074385;28;20028;-36
2021/10/27 08:31:40;;;;;;;11.32;3.47;;;14.10;82.20;;;;;;5073776;28;20021;-37
2021/10/27 08:34:20;;;;;;;10.98;3.17;;;14.00;82.10;;;;;;5074240;28;20081;-37
2021/10/27 08:36:45;;;;;;;11.02;3.15;;;14.00;82.00;;;;;;5055899;28;20059;-37
2021/10/27 08:39:11;;;;;;;9.13;3.97;;;14.10;81.40;;;;;;5073937;28;20057;-38
2021/10/27 08:41:38;;;;;;;9.80;4.10;;;14.20;81.40;;;;;;5073971;28;20389;-37
2021/10/27 08:44:04;;;;;;;7.75;4.05;;;14.20;81.30;;;;;;5074031;28;20029;-37
2021/10/27 08:46:32;;;;;;;4.47;3.17;;;14.30;81.20;;;;;;5074109;28;20523;-37
2021/10/27 08:48:58;;;;;;;9.63;3.38;;;14.40;80.30;;;;;;5074029;28;20060;-38
2021/10/27 08:51:26;;;;;;;7.78;2.72;;;14.30;80.90;;;;;;5074043;28;20103;-38
2021/10/27 08:53:52;;;;;;;5.80;3.08;;;14.40;80.30;;;;;;5074022;28;20032;-38
2021/10/27 08:56:18;;;;;;;9.60;2.97;;;14.40;80.20;;;;;;5073977;28;20031;-38
2021/10/27 08:58:48;;;;;;;8.52;3.05;;;14.30;80.60;;;;;;5073435;28;20103;-38
2021/10/27 09:04:23;;;;;;;6.65;2.92;;;14.10;80.80;;;;;;5074120;28;20071;-38
2021/10/27 09:07:15;;;;;;;7.13;3.60;;;14.20;81.00;;;;;;5073761;28;20056;-39
2021/10/27 09:09:56;;;;;;;5.75;3.13;;;14.30;79.90;;;;;;5074630;28;20483;-38
2021/10/27 09:38:09;;;;;;;11.00;3.55;;;14.50;79.70;;;;;;5072747;28;20419;-38
2021/10/27 10:05:42;;;;;;;9.55;3.33;;;14.70;77.50;;;;;;5072794;28;20383;-38
2021/10/27 10:08:07;;;;;;;6.75;2.92;;;14.70;77.70;;;;;;5073026;28;20032;-37
2021/10/27 10:10:33;;;;;;;12.65;3.28;;;14.60;77.70;;;;;;5071770;28;20024;-37
2021/10/27 10:13:00;;;;;;;8.85;3.25;;;15.00;76.70;;;;;;5054270;28;20046;-37
2021/10/27 10:15:36;;;;;;;6.25;2.83;;;15.00;77.00;;;;;;5072223;28;20082;-37
2021/10/27 10:18:03;;;;;;;7.60;2.97;;;15.30;75.80;;;;;;5072652;28;20468;-37
2021/10/27 10:20:29;;;;;;;10.10;3.00;;;15.40;74.70;;;;;;5072160;28;20480;-38
2021/10/27 10:22:54;;;;;;;12.30;4.28;;;15.40;75.00;;;;;;5072432;28;20017;-38
2021/10/27 10:25:21;;;;;;;7.18;3.33;;;15.30;75.80;;;;;;5072751;28;20040;-38
2021/10/27 10:28:07;;;;;;;6.80;3.13;;;15.20;75.60;;;;;;5072107;28;20380;-38
2021/10/27 10:30:51;;;;;;;4.53;2.40;;;15.20;75.70;;;;;;5071871;28;20023;-38
2021/10/27 10:33:17;;;;;;;6.60;3.25;;;15.10;76.00;;;;;;5072303;28;20016;-38
2021/10/27 11:03:28;;;;;;;4.32;2.58;;;15.80;73.60;;;;;;5072049;28;20031;-38
2021/10/27 11:23:30;;;;;;;7.00;2.72;;;16.00;72.30;;;;;;5074874;28;20031;-37
2021/10/27 11:26:11;;;;;;;5.47;2.47;;;16.10;72.40;;;;;;5075703;28;20040;-37
2021/10/27 11:37:28;;;;;;;8.35;3.20;;;16.30;71.20;;;;;;5075402;28;20109;-37
2021/10/27 11:40:15;;;;;;;7.88;2.85;;;16.40;71.10;;;;;;5075351;28;20017;-37
2021/10/27 11:42:50;;;;;;;22.77;4.68;;;16.60;70.90;;;;;;5075096;28;20039;-38
2021/10/27 11:48:00;;;;;;;7.53;2.97;;;16.50;70.20;;;;;;5075431;28;20025;-38
2021/10/27 11:50:35;;;;;;;6.22;3.22;;;16.50;70.80;;;;;;5075715;28;20021;-38
2021/10/27 11:53:05;;;;;;;3.75;1.83;;;16.80;70.00;;;;;;5075179;28;20035;-39
2021/10/27 11:55:37;;;;;;;5.75;2.33;;;16.80;69.80;;;;;;5075324;28;20021;-39
2021/10/27 11:58:04;;;;;;;4.90;1.80;;;16.60;70.50;;;;;;5075433;28;20061;-38
2021/10/27 12:00:38;;;;;;;13.80;2.80;;;16.70;70.30;;;;;;5075088;28;20032;-38
2021/10/27 12:03:26;;;;;;;7.80;2.00;;;16.80;69.60;;;;;;5075261;28;20099;-38
2021/10/27 12:11:06;;;;;;;3.20;2.03;;;16.80;69.70;;;;;;5055073;28;20048;-37
2021/10/27 12:19:22;;;;;;;6.75;2.00;;;17.00;68.40;;;;;;5048040;28;20410;-37
2021/10/27 12:22:03;;;;;;;4.63;1.92;;;16.90;69.40;;;;;;5036710;28;20385;-37
2021/10/27 12:24:34;;;;;;;11.18;3.25;;;17.10;69.00;;;;;;5054294;28;20102;-38
2021/10/27 12:27:06;;;;;;;9.65;2.92;;;17.00;68.80;;;;;;5054464;28;20021;-38
2021/10/27 12:29:36;;;;;;;4.38;2.45;;;17.10;68.90;;;;;;5055144;28;20021;-38
2021/10/27 12:32:09;;;;;;;9.85;2.28;;;17.10;68.40;;;;;;5054493;28;20070;-38
2021/10/27 12:34:45;;;;;;;5.45;2.05;;;17.20;68.20;;;;;;5053421;28;20048;-38
2021/10/27 12:37:37;;;;;;;10.15;2.97;;;17.10;68.20;;;;;;5054409;28;20028;-38
2021/10/27 12:40:13;;;;;;;6.13;2.30;;;17.10;68.60;;;;;;5054473;28;20025;-38
2021/10/27 12:42:39;;;;;;;16.90;4.28;;;17.00;68.90;;;;;;5054570;28;20354;-38
2021/10/27 12:45:06;;;;;;;7.75;2.45;;;17.00;69.00;;;;;;5054037;28;20127;-38
2021/10/27 12:47:34;;;;;;;3.60;2.15;;;17.20;68.50;;;;;;5054252;28;20151;-38
2021/10/27 12:50:11;;;;;;;6.38;2.55;;;17.20;68.60;;;;;;5054593;28;20099;-37
2021/10/27 12:52:45;;;;;;;7.40;2.72;;;17.10;68.60;;;;;;5036022;28;20028;-38
2021/10/27 12:55:19;;;;;;;3.47;2.03;;;17.00;69.10;;;;;;5054632;28;20021;-37
2021/10/27 12:58:01;;;;;;;7.55;2.03;;;17.00;68.60;;;;;;5053838;28;20051;-37
2021/10/27 13:00:48;;;;;;;10.07;2.50;;;17.10;68.60;;;;;;5054271;28;20035;-37
2021/10/27 13:13:53;;;;;;;6.32;1.98;;;17.30;68.60;;;;;;5073592;28;20021;-37
2021/10/27 13:16:44;;;;;;;5.20;1.98;;;17.30;68.50;;;;;;5073444;28;20480;-37
2021/10/27 13:30:17;;;;;;;6.53;2.42;;;16.90;69.80;;;;;;5010563;28;20022;-37
2021/10/27 13:32:50;;;;;;;6.32;2.30;;;16.80;70.00;;;;;;5068334;28;20056;-38
2021/10/27 13:35:16;;;;;;;5.97;2.30;;;16.80;70.20;;;;;;5073206;28;20033;-39
2021/10/27 13:37:42;;;;;;;5.05;1.83;;;16.80;70.40;;;;;;5055306;28;20032;-37
2021/10/27 13:40:09;;;;;;;7.25;2.10;;;16.80;70.90;;;;;;5072799;28;20032;-37
2021/10/27 14:06:29;;;;;;;6.65;2.38;;;17.00;70.30;;;;;;5072804;28;20059;-37
2021/10/27 14:09:03;;;;;;;7.70;2.50;;;17.00;69.80;;;;;;5072516;28;20021;-38
2021/10/27 14:12:19;;;;;;;4.55;1.95;;;17.00;70.30;;;;;;5072197;28;20222;-37
2021/10/27 14:14:23;;;;;;;4.35;1.70;;;16.90;70.50;;;;;;5061803;28;20029;-37
2021/10/27 14:17:06;;;;;;;5.28;2.40;;;16.90;70.50;;;;;;5073039;28;20026;-37
2021/10/27 15:22:00;;;;;;;5.68;1.50;;;16.50;71.50;;;;;;5076582;28;20059;-38
2021/10/27 15:30:03;;;;;;;4.90;2.25;;;16.50;71.30;;;;;;5076313;28;20120;-37
2021/10/27 15:35:16;;;;;;;7.38;2.38;;;16.30;72.30;;;;;;5077078;28;20090;-37
2021/10/27 15:40:54;;;;;;;5.78;2.03;;;16.20;72.80;;;;;;5076067;28;20138;-37
2021/10/27 15:51:36;;;;;;;3.55;1.65;;;15.80;74.70;;;;;;5075932;28;20171;-38
2021/10/27 15:54:03;;;;;;;3.53;1.85;;;15.80;74.70;;;;;;5075134;28;20104;-37
2021/10/27 15:56:29;;;;;;;4.20;1.95;;;15.80;74.80;;;;;;5075052;28;20130;-38
2021/10/27 15:58:55;;;;;;;6.53;2.13;;;15.70;75.10;;;;;;5057392;28;20039;-38
2021/10/27 16:01:21;;;;;;;11.55;2.50;;;15.60;75.40;;;;;;5075542;28;20025;-38
2021/10/27 16:03:47;;;;;;;11.93;2.83;;;15.40;76.30;;;;;;5057481;28;20514;-38
2021/10/27 16:06:15;;;;;;;5.47;2.70;;;15.30;77.20;;;;;;5075010;28;20058;-37
2021/10/27 16:08:45;;;;;;;11.05;2.78;;;15.30;77.30;;;;;;5055639;28;20530;-38
2021/10/27 16:11:10;;;;;;;7.53;2.83;;;15.30;77.30;;;;;;5075345;28;20029;-37
2021/10/27 16:13:36;;;;;;;5.22;2.00;;;15.20;77.80;;;;;;5075047;28;20469;-38
2021/10/27 16:16:03;;;;;;;10.35;5.47;;;15.10;78.30;;;;;;5057178;28;20077;-38
2021/10/27 16:18:31;;;;;;;7.28;2.05;;;15.00;78.70;;;;;;5075006;28;20029;-38
2021/10/27 16:20:59;;;;;;;8.15;2.63;;;15.00;78.50;;;;;;5075125;28;20102;-38
2021/10/27 16:23:25;;;;;;;8.00;2.50;;;15.00;78.70;;;;;;5056822;28;20033;-38
2021/10/27 16:25:52;;;;;;;5.72;2.20;;;14.90;78.90;;;;;;5075127;28;20338;-37
2021/10/27 16:28:18;;;;;;;6.75;2.47;;;14.80;79.20;;;;;;5075469;28;20448;-37
2021/10/27 16:30:44;;;;;;;11.25;3.10;;;14.70;79.80;;;;;;5074442;28;20017;-38
2021/10/27 16:33:10;;;;;;;6.30;2.50;;;14.80;79.80;;;;;;5074564;28;20476;-37
2021/10/27 16:35:36;;;;;;;9.93;3.85;;;14.70;80.10;;;;;;5074465;28;20033;-37
2021/10/27 16:38:04;;;;;;;7.50;3.65;;;14.80;79.70;;;;;;5074835;28;20490;-39
2021/10/27 16:40:30;;;;;;;4.78;2.80;;;14.70;79.80;;;;;;5074368;28;20021;-39
2021/10/27 16:42:56;;;;;;;3.85;2.20;;;14.60;80.10;;;;;;5074690;28;20032;-37
2021/10/27 16:45:22;;;;;;;7.32;3.03;;;14.60;80.10;;;;;;5074278;28;20021;-38
2021/10/27 16:47:48;;;;;;;9.63;2.60;;;14.60;80.40;;;;;;5073981;28;20108;-38
2021/10/27 16:50:15;;;;;;;6.70;3.10;;;14.40;80.70;;;;;;5056294;28;20360;-43
2021/10/27 16:52:44;;;;;;;6.25;2.80;;;14.50;80.60;;;;;;5039961;28;20463;-37
2021/10/27 16:55:17;;;;;;;5.35;3.20;;;14.40;80.60;;;;;;5074237;28;20020;-37
2021/10/27 16:57:43;;;;;;;6.78;2.80;;;14.30;80.60;;;;;;5074434;28;20432;-37
2021/10/27 17:00:10;;;;;;;5.07;2.08;;;14.30;80.90;;;;;;5073654;28;20052;-37
2021/10/27 17:02:35;;;;;;;4.85;2.90;;;14.20;81.00;;;;;;5074090;28;20037;-37
2021/10/27 17:05:01;;;;;;;5.93;2.70;;;14.20;81.50;;;;;;5073847;28;20024;-37
2021/10/27 17:07:31;;;;;;;7.68;3.25;;;14.20;81.20;;;;;;5055840;28;20047;-37
2021/10/27 17:09:58;;;;;;;6.32;3.05;;;14.20;81.00;;;;;;5073994;28;20392;-37
2021/10/27 17:12:24;;;;;;;7.75;3.58;;;14.10;81.50;;;;;;5055469;28;20111;-37
2021/10/27 17:14:49;;;;;;;6.72;3.38;;;14.20;81.30;;;;;;5073975;28;20067;-38
2021/10/27 17:17:15;;;;;;;5.50;3.55;;;14.20;81.40;;;;;;5073748;28;20078;-37
2021/10/27 17:19:41;;;;;;;10.25;2.97;;;14.00;81.80;;;;;;5073153;28;20021;-38
2021/10/27 17:22:08;;;;;;;11.25;3.85;;;14.00;81.80;;;;;;5073400;28;20036;-37
2021/10/27 17:24:34;;;;;;;8.15;3.28;;;14.10;81.70;;;;;;5074242;28;20028;-38
2021/10/27 17:26:59;;;;;;;5.72;3.03;;;13.90;82.10;;;;;;5074807;28;20094;-37
2021/10/27 17:29:25;;;;;;;7.85;4.07;;;13.90;82.20;;;;;;5073744;28;20035;-39
2021/10/27 17:31:52;;;;;;;8.63;3.00;;;13.80;82.40;;;;;;5073763;28;20031;-37
2021/10/27 17:34:18;;;;;;;5.00;2.72;;;13.80;82.90;;;;;;5055525;28;20020;-37